Startpagina
METAR-TAF:

METAR-TAF

Vliegvelden :

Talara, Peru

breedte: 04-34S, lengte: 081-15W, hoogte: 85 m

METAR: ontbreekt

Tijdstip: 17:46 (22:46 UTC)

Verwachting

Dit bericht is 33 uur en het 46 minuten geleden gemaakt, om 13:00 UTC
Verwachting geldig van 30 om 12 UTC tot 31 om 12 UTC
Wind 15 kt uit het zuidoosten
Zicht 10 km of meer
geen wolken onder 1500 m en geen cumulonimbus

TAF: SPYL 301300Z 3012/3112 13015KT CAVOK TX30/3019Z TN20/3111Z

Waarnemingen en weersverwachtingen van meer dan 4000 vliegvelden (METAR en TAF).

De beschikbare stations zijn de gele en rode punten op de kaart.

Ga met uw muis naar het station om de naam te zien.

Klik dan om waarnemingen en weersverwachtingen te zien.

kaart wijzigen: klik op de groene knoppen met een zwart kruis om in te zoomen, op de groene knop met een streepje om uit te zoomen of op de groene pijlen voor aangrenzende kaarten.


METAR-TAF: